createdAt,value
2023-02-04T00:01:00.879Z,8.31
2023-02-04T00:03:27.345Z,8.25
2023-02-04T00:05:53.918Z,8.23
2023-02-04T00:08:20.422Z,8.19
2023-02-04T00:10:47.493Z,8.12
2023-02-04T00:13:13.995Z,8.07
2023-02-04T00:15:40.455Z,8.11
2023-02-04T00:18:07.232Z,8.06
2023-02-04T00:20:34.937Z,8.06
2023-02-04T00:23:01.494Z,8.02
2023-02-04T00:25:28.060Z,8.05
2023-02-04T00:27:54.661Z,8.00
2023-02-04T00:30:21.401Z,8.06
2023-02-04T00:32:47.931Z,8.07
2023-02-04T00:35:14.492Z,8.09
2023-02-04T00:37:41.066Z,8.07
2023-02-04T00:40:08.146Z,8.17
2023-02-04T00:42:34.600Z,8.14
2023-02-04T00:45:01.069Z,8.13
2023-02-04T00:47:27.614Z,8.17
2023-02-04T00:49:54.157Z,8.18
2023-02-04T00:52:20.701Z,8.12
2023-02-04T00:54:47.188Z,8.13
2023-02-04T00:57:13.650Z,8.14
2023-02-04T00:59:40.173Z,8.10
2023-02-04T01:02:06.752Z,8.12
2023-02-04T01:04:33.433Z,8.13
2023-02-04T01:06:59.909Z,8.19
2023-02-04T01:09:26.457Z,8.18
2023-02-04T01:11:53.029Z,8.19
2023-02-04T01:14:20.344Z,8.19
2023-02-04T01:16:46.890Z,8.17
2023-02-04T01:19:13.663Z,8.20
2023-02-04T01:21:41.089Z,8.21
2023-02-04T01:24:07.895Z,8.23
2023-02-04T01:26:34.396Z,8.22
2023-02-04T01:29:00.820Z,8.18
2023-02-04T01:31:28.381Z,8.09
2023-02-04T01:33:54.843Z,8.17
2023-02-04T01:36:21.785Z,8.11
2023-02-04T01:38:51.094Z,8.18
2023-02-04T01:41:18.603Z,8.20
2023-02-04T01:43:49.026Z,8.19
2023-02-04T01:46:16.368Z,8.16
2023-02-04T01:48:43.012Z,8.20
2023-02-04T01:51:12.677Z,8.20
2023-02-04T01:53:39.970Z,8.19
2023-02-04T01:56:27.494Z,8.25
2023-02-04T01:58:55.927Z,8.27
2023-02-04T02:01:44.006Z,8.28
2023-02-04T02:04:17.139Z,8.25
2023-02-04T02:06:58.865Z,8.23
2023-02-04T02:09:27.655Z,8.30
2023-02-04T02:11:54.396Z,8.31
2023-02-04T02:14:21.363Z,8.31
2023-02-04T02:16:48.307Z,8.30
2023-02-04T02:19:23.958Z,8.29
2023-02-04T02:22:05.336Z,8.25
2023-02-04T02:24:33.855Z,8.29
2023-02-04T02:27:05.078Z,8.31
2023-02-04T02:29:31.781Z,8.30
2023-02-04T02:31:58.920Z,8.28
2023-02-04T02:34:27.679Z,8.29
2023-02-04T02:36:54.815Z,8.29
2023-02-04T02:39:22.118Z,8.32
2023-02-04T02:41:48.666Z,8.29
2023-02-04T02:44:17.922Z,8.25
2023-02-04T02:46:45.123Z,8.28
2023-02-04T02:49:17.914Z,8.30
2023-02-04T02:51:45.511Z,8.31
2023-02-04T02:54:32.419Z,8.31
2023-02-04T02:56:59.613Z,8.26
2023-02-04T02:59:27.702Z,8.29
2023-02-04T03:02:00.113Z,8.29
2023-02-04T03:04:28.654Z,8.30
2023-02-04T03:06:56.170Z,8.31
2023-02-04T03:09:25.287Z,8.31
2023-02-04T03:11:52.256Z,8.30
2023-02-04T03:14:19.637Z,8.25
2023-02-04T03:16:48.056Z,8.27
2023-02-04T03:19:14.842Z,8.27
2023-02-04T03:21:42.107Z,8.24
2023-02-04T03:24:09.372Z,8.23
2023-02-04T03:26:35.991Z,8.20
2023-02-04T03:29:02.463Z,8.22
2023-02-04T03:31:29.067Z,8.22
2023-02-04T03:33:55.588Z,8.23
2023-02-04T03:36:22.435Z,8.21
2023-02-04T03:38:48.971Z,8.21
2023-02-04T03:41:15.401Z,8.21
2023-02-04T03:43:41.865Z,8.19
2023-02-04T03:46:08.372Z,8.20
2023-02-04T03:48:34.852Z,8.21
2023-02-04T03:51:01.379Z,8.18
2023-02-04T03:53:27.925Z,8.20
2023-02-04T03:55:54.449Z,8.20
2023-02-04T03:58:22.396Z,8.16
2023-02-04T04:00:49.072Z,8.17
2023-02-04T04:03:15.823Z,8.14
2023-02-04T04:05:42.329Z,8.13
2023-02-04T04:08:08.800Z,8.14
2023-02-04T04:10:35.272Z,8.18
2023-02-04T04:13:01.907Z,8.13
2023-02-04T04:15:28.471Z,8.16
2023-02-04T04:17:54.993Z,8.18
2023-02-04T04:20:25.440Z,8.18
2023-02-04T04:22:52.762Z,8.18
2023-02-04T04:25:19.377Z,8.20
2023-02-04T04:27:45.941Z,8.19
2023-02-04T04:30:12.896Z,8.19
2023-02-04T04:32:39.423Z,8.17
2023-02-04T04:35:06.219Z,8.15
2023-02-04T04:37:34.788Z,8.15
2023-02-04T04:40:02.778Z,8.13
2023-02-04T04:42:29.416Z,8.18
2023-02-04T04:44:55.851Z,8.17
2023-02-04T04:47:22.324Z,8.14
2023-02-04T04:49:48.840Z,8.17
2023-02-04T04:52:15.309Z,8.14
2023-02-04T04:54:41.828Z,8.14
2023-02-04T04:57:08.423Z,8.07
2023-02-04T04:59:34.992Z,8.10
2023-02-04T05:02:01.532Z,8.11
2023-02-04T05:04:28.198Z,8.03
2023-02-04T05:06:54.692Z,8.09
2023-02-04T05:09:21.134Z,8.02
2023-02-04T05:11:47.898Z,8.08
2023-02-04T05:14:14.317Z,8.10
2023-02-04T05:16:40.830Z,8.06
2023-02-04T05:19:07.344Z,8.07
2023-02-04T05:21:33.794Z,8.13
2023-02-04T05:24:00.522Z,8.06
2023-02-04T05:26:30.759Z,8.10
2023-02-04T05:29:00.262Z,8.09
2023-02-04T05:31:27.157Z,8.07
2023-02-04T05:33:54.517Z,8.13
2023-02-04T05:36:21.262Z,8.10
2023-02-04T05:38:47.714Z,8.13
2023-02-04T05:41:14.176Z,8.12
2023-02-04T05:43:40.629Z,8.11
2023-02-04T05:46:07.155Z,8.10
2023-02-04T05:48:33.740Z,8.07
2023-02-04T05:51:00.204Z,8.08
2023-02-04T05:53:26.756Z,8.07
2023-02-04T05:55:53.406Z,8.05
2023-02-04T05:58:19.911Z,8.06
2023-02-04T06:00:46.483Z,8.07
2023-02-04T06:03:14.540Z,8.07
2023-02-04T06:05:41.144Z,8.06
2023-02-04T06:08:07.691Z,8.04
2023-02-04T06:10:34.268Z,8.04
2023-02-04T06:13:00.788Z,8.11
2023-02-04T06:15:27.260Z,8.11
2023-02-04T06:17:53.725Z,8.12
2023-02-04T06:20:20.310Z,8.12
2023-02-04T06:22:47.675Z,8.14
2023-02-04T06:25:14.293Z,8.10
2023-02-04T06:27:40.822Z,8.15
2023-02-04T06:30:07.881Z,8.16
2023-02-04T06:32:34.387Z,8.17
2023-02-04T06:35:00.885Z,8.18
2023-02-04T06:37:27.465Z,8.15
2023-02-04T06:39:54.716Z,8.15
2023-02-04T06:42:21.217Z,8.17
2023-02-04T06:44:47.677Z,8.19
2023-02-04T06:47:14.218Z,8.18
2023-02-04T06:49:40.677Z,8.18
2023-02-04T06:52:07.129Z,8.18
2023-02-04T06:54:33.836Z,8.20
2023-02-04T06:57:06.524Z,8.19
2023-02-04T06:59:38.158Z,8.18
2023-02-04T07:02:06.066Z,8.20
2023-02-04T07:04:33.089Z,8.18
2023-02-04T07:06:59.680Z,8.20
2023-02-04T07:09:26.314Z,8.14
2023-02-04T07:11:54.007Z,8.16
2023-02-04T07:14:20.670Z,8.14
2023-02-04T07:16:47.176Z,8.15
2023-02-04T07:19:13.676Z,8.12
2023-02-04T07:21:40.115Z,8.19
2023-02-04T07:24:06.650Z,8.19
2023-02-04T07:26:34.290Z,8.17
2023-02-04T07:29:00.792Z,8.22
2023-02-04T07:31:27.380Z,8.23
2023-02-04T07:33:53.938Z,8.23
2023-02-04T07:36:20.371Z,8.24
2023-02-04T07:38:47.978Z,8.22
2023-02-04T07:41:14.485Z,8.20
2023-02-04T07:43:41.201Z,8.17
2023-02-04T07:46:07.915Z,8.13
2023-02-04T07:48:34.460Z,8.16
2023-02-04T07:51:00.997Z,8.18
2023-02-04T07:53:27.589Z,8.20
2023-02-04T07:55:54.024Z,8.16
2023-02-04T07:58:20.520Z,8.19
2023-02-04T08:00:47.034Z,8.21
2023-02-04T08:03:13.549Z,8.18
2023-02-04T08:05:40.083Z,8.21
2023-02-04T08:08:06.867Z,8.16
2023-02-04T08:10:33.863Z,8.20
2023-02-04T08:13:00.730Z,8.26
2023-02-04T08:15:27.192Z,8.32
2023-02-04T08:17:53.698Z,8.32
2023-02-04T08:20:20.255Z,8.28
2023-02-04T08:22:46.809Z,8.34
2023-02-04T08:25:13.328Z,8.32
2023-02-04T08:27:39.878Z,8.28
2023-02-04T08:30:07.202Z,8.35
2023-02-04T08:32:33.676Z,8.39
2023-02-04T08:35:00.394Z,8.44
2023-02-04T08:37:27.285Z,8.48
2023-02-04T08:39:53.773Z,8.51
2023-02-04T08:42:20.399Z,8.58
2023-02-04T08:44:47.175Z,8.63
2023-02-04T08:47:13.707Z,8.72
2023-02-04T08:49:40.195Z,8.77
2023-02-04T08:52:07.950Z,8.86
2023-02-04T08:54:35.541Z,8.91
2023-02-04T08:57:02.406Z,8.94
2023-02-04T08:59:29.029Z,9.00
2023-02-04T09:01:55.538Z,9.06
2023-02-04T09:04:23.557Z,9.11
2023-02-04T09:06:51.354Z,9.07
2023-02-04T09:09:18.188Z,9.15
2023-02-04T09:11:44.823Z,9.17
2023-02-04T09:14:11.470Z,9.21
2023-02-04T09:16:38.094Z,9.18
2023-02-04T09:19:04.682Z,9.28
2023-02-04T09:21:31.454Z,9.37
2023-02-04T09:23:58.031Z,9.47
2023-02-04T09:26:24.543Z,9.52
2023-02-04T09:28:51.061Z,9.56
2023-02-04T09:31:17.881Z,9.66
2023-02-04T09:33:44.573Z,9.69
2023-02-04T09:36:11.183Z,9.77
2023-02-04T09:38:37.718Z,9.84
2023-02-04T09:41:07.316Z,9.89
2023-02-04T09:43:38.557Z,9.97
2023-02-04T09:46:05.889Z,10.01
2023-02-04T09:48:32.901Z,10.08
2023-02-04T09:51:07.711Z,10.12
2023-02-04T09:53:36.540Z,10.22
2023-02-04T09:56:03.048Z,10.34
2023-02-04T09:58:33.397Z,10.44
2023-02-04T10:01:10.292Z,10.49
2023-02-04T10:03:36.962Z,10.60
2023-02-04T10:06:03.623Z,10.58
2023-02-04T10:08:33.296Z,10.70
2023-02-04T10:11:01.287Z,10.80
2023-02-04T10:13:37.732Z,10.88
2023-02-04T10:16:13.431Z,10.93
2023-02-04T10:18:40.321Z,10.88
2023-02-04T10:21:13.806Z,10.92
2023-02-04T10:23:42.295Z,10.88
2023-02-04T10:26:11.722Z,10.81
2023-02-04T10:28:40.208Z,10.80
2023-02-04T10:31:26.422Z,10.78
2023-02-04T10:34:18.442Z,10.79
2023-02-04T10:36:51.018Z,10.76
2023-02-04T10:39:21.920Z,10.72
2023-02-04T10:41:51.460Z,10.74
2023-02-04T10:44:21.247Z,10.74
2023-02-04T10:46:48.457Z,10.80
2023-02-04T10:49:21.404Z,10.77
2023-02-04T10:51:48.994Z,10.72
2023-02-04T10:54:30.532Z,10.70
2023-02-04T10:56:59.766Z,10.57
2023-02-04T10:59:27.962Z,10.66
2023-02-04T11:02:00.036Z,10.74
2023-02-04T11:04:28.674Z,10.87
2023-02-04T11:06:55.471Z,10.98
2023-02-04T11:09:22.081Z,11.07
2023-02-04T11:11:50.640Z,10.92
2023-02-04T11:14:29.577Z,10.98
2023-02-04T11:17:01.564Z,10.95
2023-02-04T11:19:37.911Z,11.03
2023-02-04T11:22:07.483Z,11.09
2023-02-04T11:24:34.425Z,11.15
2023-02-04T11:27:26.742Z,11.14
2023-02-04T11:30:05.778Z,11.19
2023-02-04T11:32:36.132Z,11.14
2023-02-04T11:35:23.364Z,11.22
2023-02-04T11:37:50.000Z,11.19
2023-02-04T11:40:37.944Z,11.10
2023-02-04T11:43:15.977Z,11.18
2023-02-04T11:45:43.270Z,10.94
2023-02-04T11:48:16.138Z,10.85
2023-02-04T11:50:42.932Z,10.92
2023-02-04T11:53:12.442Z,10.86
2023-02-04T11:55:47.909Z,10.98
2023-02-04T11:58:16.478Z,10.89
2023-02-04T12:00:43.909Z,10.97
2023-02-04T12:03:36.267Z,10.99
2023-02-04T12:06:03.533Z,11.06
2023-02-04T12:08:32.129Z,11.06
2023-02-04T12:10:58.578Z,11.06
2023-02-04T12:13:26.085Z,11.12
2023-02-04T12:16:02.634Z,11.14
2023-02-04T12:18:33.500Z,11.25
2023-02-04T12:21:01.357Z,11.17
2023-02-04T12:23:29.630Z,11.19
2023-02-04T12:25:56.435Z,11.09
2023-02-04T12:28:23.417Z,11.15
2023-02-04T12:30:50.166Z,11.17
2023-02-04T12:33:16.797Z,11.05
2023-02-04T12:35:43.354Z,11.06
2023-02-04T12:38:10.384Z,10.89
2023-02-04T12:40:37.341Z,10.99
2023-02-04T12:43:03.971Z,10.94
2023-02-04T12:45:30.905Z,10.86
2023-02-04T12:47:57.751Z,10.84
2023-02-04T12:50:24.669Z,10.81
2023-02-04T12:52:59.026Z,10.78
2023-02-04T12:55:27.986Z,10.80
2023-02-04T12:57:56.108Z,10.89
2023-02-04T13:00:23.357Z,11.00
2023-02-04T13:02:50.370Z,11.09
2023-02-04T13:05:18.418Z,11.19
2023-02-04T13:07:44.859Z,11.29
2023-02-04T13:10:12.497Z,11.43
2023-02-04T13:12:39.234Z,11.99
2023-02-04T13:15:06.345Z,13.09
2023-02-04T13:17:32.824Z,14.27
2023-02-04T13:20:00.564Z,15.17
2023-02-04T13:22:27.715Z,16.41
2023-02-04T13:24:54.335Z,17.42
2023-02-04T13:27:20.879Z,18.49
2023-02-04T13:29:47.379Z,19.34
2023-02-04T13:32:13.950Z,19.24
2023-02-04T13:34:40.492Z,19.75
2023-02-04T13:37:09.496Z,19.27
2023-02-04T13:39:35.949Z,19.57
2023-02-04T13:42:04.426Z,19.67
2023-02-04T13:44:31.104Z,19.40
2023-02-04T13:46:57.668Z,19.43
2023-02-04T13:49:24.217Z,19.36
2023-02-04T13:51:50.739Z,19.96
2023-02-04T13:54:17.273Z,20.52
2023-02-04T13:56:43.760Z,21.00
2023-02-04T13:59:10.389Z,21.97
2023-02-04T14:01:37.056Z,21.58
2023-02-04T14:04:03.716Z,21.99
2023-02-04T14:06:34.457Z,21.40
2023-02-04T14:09:02.019Z,21.74
2023-02-04T14:11:28.545Z,22.07
2023-02-04T14:13:55.208Z,22.00
2023-02-04T14:16:22.088Z,20.39
2023-02-04T14:18:48.643Z,19.42
2023-02-04T14:21:15.167Z,18.79
2023-02-04T14:23:42.201Z,18.44
2023-02-04T14:26:09.401Z,17.36
2023-02-04T14:28:35.982Z,16.09
2023-02-04T14:31:02.538Z,15.02
2023-02-04T14:33:29.139Z,13.98
2023-02-04T14:35:55.597Z,13.76
2023-02-04T14:38:22.098Z,13.37
2023-02-04T14:40:48.764Z,12.95
2023-02-04T14:43:15.226Z,12.63
2023-02-04T14:45:41.795Z,12.44
2023-02-04T14:48:09.104Z,12.26
2023-02-04T14:50:35.847Z,12.26
2023-02-04T14:53:02.555Z,12.22
2023-02-04T14:55:29.141Z,12.16
2023-02-04T14:57:55.693Z,12.05
2023-02-04T15:00:22.329Z,11.90
2023-02-04T15:02:49.086Z,11.96
2023-02-04T15:05:15.620Z,11.96
2023-02-04T15:07:42.173Z,11.99
2023-02-04T15:10:10.149Z,11.95
2023-02-04T15:12:36.764Z,11.99
2023-02-04T15:15:04.335Z,12.00
2023-02-04T15:17:30.805Z,11.98
2023-02-04T15:19:57.498Z,11.94
2023-02-04T15:22:24.108Z,11.92
2023-02-04T15:24:50.587Z,11.90
2023-02-04T15:27:17.057Z,11.89
2023-02-04T15:29:43.531Z,11.86
2023-02-04T15:32:10.085Z,11.78
2023-02-04T15:34:36.959Z,11.71
2023-02-04T15:37:03.553Z,11.65
2023-02-04T15:39:30.040Z,11.62
2023-02-04T15:41:57.108Z,11.64
2023-02-04T15:44:24.251Z,11.64
2023-02-04T15:46:51.844Z,11.63
2023-02-04T15:49:18.290Z,11.58
2023-02-04T15:51:44.713Z,11.56
2023-02-04T15:54:11.205Z,11.58
2023-02-04T15:56:37.699Z,11.56
2023-02-04T15:59:04.163Z,11.53
2023-02-04T16:01:30.798Z,11.44
2023-02-04T16:03:57.724Z,11.33
2023-02-04T16:06:24.190Z,11.27
2023-02-04T16:08:50.960Z,11.21
2023-02-04T16:11:23.302Z,11.18
2023-02-04T16:13:49.802Z,11.12
2023-02-04T16:16:16.348Z,11.06
2023-02-04T16:18:45.413Z,11.03
2023-02-04T16:21:11.914Z,10.94
2023-02-04T16:23:38.376Z,10.90
2023-02-04T16:26:04.994Z,10.84
2023-02-04T16:28:31.457Z,10.80
2023-02-04T16:30:58.208Z,10.77
2023-02-04T16:33:26.780Z,10.70
2023-02-04T16:36:00.940Z,10.64
2023-02-04T16:38:28.369Z,10.61
2023-02-04T16:40:55.238Z,10.58
2023-02-04T16:43:22.222Z,10.56
2023-02-04T16:45:48.784Z,10.52
2023-02-04T16:48:15.305Z,10.48
2023-02-04T16:50:41.763Z,10.43
2023-02-04T16:53:10.461Z,10.37
2023-02-04T16:55:36.953Z,10.33
2023-02-04T16:58:03.390Z,10.30
2023-02-04T17:00:29.948Z,10.26
2023-02-04T17:02:56.914Z,10.19
2023-02-04T17:05:23.451Z,10.17
2023-02-04T17:07:49.956Z,10.09
2023-02-04T17:10:36.607Z,10.10
2023-02-04T17:13:03.051Z,10.05
2023-02-04T17:15:29.492Z,9.95
2023-02-04T17:17:55.936Z,9.87
2023-02-04T17:20:25.246Z,9.83
2023-02-04T17:22:52.384Z,9.78
2023-02-04T17:25:18.866Z,9.67
2023-02-04T17:27:45.486Z,9.61
2023-02-04T17:30:12.541Z,9.52
2023-02-04T17:32:39.055Z,9.49
2023-02-04T17:35:05.846Z,9.41
2023-02-04T17:37:32.269Z,9.31
2023-02-04T17:39:58.693Z,9.27
2023-02-04T17:42:28.316Z,9.21
2023-02-04T17:44:54.859Z,9.15
2023-02-04T17:47:21.317Z,9.09
2023-02-04T17:49:48.625Z,9.06
2023-02-04T17:52:15.140Z,9.04
2023-02-04T17:54:41.610Z,9.01
2023-02-04T17:57:18.414Z,8.89
2023-02-04T17:59:45.233Z,8.88
2023-02-04T18:02:24.417Z,8.83
2023-02-04T18:04:53.123Z,8.75
2023-02-04T18:07:19.576Z,8.70
2023-02-04T18:09:46.050Z,8.67
2023-02-04T18:12:18.373Z,8.67
2023-02-04T18:14:46.739Z,8.62
2023-02-04T18:17:16.032Z,8.58
2023-02-04T18:19:45.075Z,8.56
2023-02-04T18:22:17.196Z,8.53
2023-02-04T18:24:48.285Z,8.50
2023-02-04T18:27:18.895Z,8.46
2023-02-04T18:29:49.096Z,8.42
2023-02-04T18:32:23.338Z,8.37
2023-02-04T18:34:54.835Z,8.28
2023-02-04T18:37:34.608Z,8.30
2023-02-04T18:40:10.249Z,8.30
2023-02-04T18:42:38.401Z,8.24
2023-02-04T18:45:23.120Z,8.21
2023-02-04T18:47:51.055Z,8.19
2023-02-04T18:50:36.099Z,8.14
2023-02-04T18:53:15.101Z,8.12
2023-02-04T18:55:47.356Z,8.07
2023-02-04T18:58:17.015Z,8.00
2023-02-04T19:00:49.281Z,7.94
2023-02-04T19:03:26.199Z,7.88
2023-02-04T19:05:58.784Z,7.88
2023-02-04T19:08:44.490Z,7.90
2023-02-04T19:11:40.294Z,7.91
2023-02-04T19:14:37.461Z,7.90
2023-02-04T19:17:29.104Z,7.87
2023-02-04T19:19:55.565Z,7.87
2023-02-04T19:22:47.845Z,7.85
2023-02-04T19:25:23.053Z,7.84
2023-02-04T19:27:57.344Z,7.82
2023-02-04T19:30:26.860Z,7.80
2023-02-04T19:32:57.031Z,7.79
2023-02-04T19:35:40.734Z,7.76
2023-02-04T19:38:42.917Z,7.76
2023-02-04T19:41:46.562Z,7.73
2023-02-04T19:44:12.965Z,7.74
2023-02-04T19:46:40.785Z,7.70
2023-02-04T19:49:29.119Z,7.75
2023-02-04T19:51:59.462Z,7.76
2023-02-04T19:54:37.520Z,7.72
2023-02-04T19:57:25.598Z,7.72
2023-02-04T19:59:56.735Z,7.71
2023-02-04T20:02:29.230Z,7.71
2023-02-04T20:04:55.807Z,7.71
2023-02-04T20:07:24.335Z,7.75
2023-02-04T20:09:56.008Z,7.75
2023-02-04T20:12:22.536Z,7.74
2023-02-04T20:14:57.219Z,7.71
2023-02-04T20:17:29.455Z,7.73
2023-02-04T20:20:01.071Z,7.70
2023-02-04T20:22:44.388Z,7.69
2023-02-04T20:25:20.176Z,7.69
2023-02-04T20:27:52.168Z,7.71
2023-02-04T20:30:26.176Z,7.70
2023-02-04T20:32:55.419Z,7.71
2023-02-04T20:35:22.247Z,7.71
2023-02-04T20:37:53.467Z,7.74
2023-02-04T20:40:35.312Z,7.77
2023-02-04T20:43:06.076Z,7.78
2023-02-04T20:45:36.584Z,7.76
2023-02-04T20:48:15.303Z,7.77
2023-02-04T20:50:53.195Z,7.77
2023-02-04T20:53:38.849Z,7.76
2023-02-04T20:56:22.446Z,7.76
2023-02-04T20:58:49.897Z,7.76
2023-02-04T21:01:24.901Z,7.76
2023-02-04T21:03:51.786Z,7.73
2023-02-04T21:06:27.588Z,7.70
2023-02-04T21:08:57.678Z,7.66
2023-02-04T21:11:25.129Z,7.68
2023-02-04T21:13:53.600Z,7.66
2023-02-04T21:16:20.866Z,7.72
2023-02-04T21:18:47.600Z,7.72
2023-02-04T21:21:14.645Z,7.78
2023-02-04T21:23:41.341Z,7.73
2023-02-04T21:26:07.877Z,7.82
2023-02-04T21:28:34.435Z,7.81
2023-02-04T21:31:01.277Z,7.81
2023-02-04T21:33:27.750Z,7.79
2023-02-04T21:35:55.187Z,7.81
2023-02-04T21:38:21.668Z,7.82
2023-02-04T21:40:48.355Z,7.78
2023-02-04T21:43:14.844Z,7.80
2023-02-04T21:45:41.365Z,7.85
2023-02-04T21:48:08.009Z,7.85
2023-02-04T21:50:36.444Z,7.77
2023-02-04T21:53:02.970Z,7.79
2023-02-04T21:55:29.779Z,7.78
2023-02-04T21:57:56.247Z,7.82
2023-02-04T22:00:23.824Z,7.80
2023-02-04T22:02:54.012Z,7.78
2023-02-04T22:05:21.532Z,7.80
2023-02-04T22:07:48.720Z,7.78
2023-02-04T22:10:20.560Z,7.77
2023-02-04T22:12:47.558Z,7.73
2023-02-04T22:15:28.077Z,7.75
2023-02-04T22:17:55.461Z,7.79
2023-02-04T22:20:25.514Z,7.78
2023-02-04T22:22:52.738Z,7.57
2023-02-04T22:25:20.627Z,7.68
2023-02-04T22:27:47.660Z,7.72
2023-02-04T22:30:16.058Z,7.74
2023-02-04T22:32:43.226Z,7.75
2023-02-04T22:35:11.081Z,7.74
2023-02-04T22:37:38.543Z,7.69
2023-02-04T22:40:05.976Z,7.67
2023-02-04T22:42:32.692Z,7.68
2023-02-04T22:44:59.216Z,7.66
2023-02-04T22:47:25.791Z,7.58
2023-02-04T22:49:55.103Z,7.63
2023-02-04T22:52:21.665Z,7.66
2023-02-04T22:54:48.138Z,7.68
2023-02-04T22:57:14.604Z,7.66
2023-02-04T22:59:41.034Z,7.67
2023-02-04T23:02:07.633Z,7.67
2023-02-04T23:04:34.124Z,7.65
2023-02-04T23:07:04.474Z,7.63
2023-02-04T23:09:32.189Z,7.68
2023-02-04T23:11:59.192Z,7.70
2023-02-04T23:14:25.664Z,7.71
2023-02-04T23:16:52.755Z,7.71
2023-02-04T23:19:19.240Z,7.61
2023-02-04T23:21:45.846Z,7.55
2023-02-04T23:24:12.323Z,7.64
2023-02-04T23:26:38.829Z,7.69
2023-02-04T23:29:05.366Z,7.70
2023-02-04T23:31:31.934Z,7.75
2023-02-04T23:33:58.397Z,7.78
2023-02-04T23:36:24.843Z,7.76
2023-02-04T23:38:51.300Z,7.78
2023-02-04T23:41:17.854Z,7.67
2023-02-04T23:43:44.312Z,7.73
2023-02-04T23:46:11.284Z,7.74
2023-02-04T23:48:37.863Z,7.77
2023-02-04T23:51:04.387Z,7.79
2023-02-04T23:53:30.833Z,7.82
2023-02-04T23:56:00.295Z,7.83
2023-02-04T23:58:26.754Z,7.77
